createdAt,value
2016-07-19T00:00:50.958Z,1015.91
2016-07-19T00:01:50.986Z,1015.91
2016-07-19T00:02:51.012Z,1015.89
2016-07-19T00:03:51.037Z,1015.89
2016-07-19T00:04:51.066Z,1015.93
2016-07-19T00:05:51.091Z,1015.95
2016-07-19T00:07:51.143Z,1015.99
2016-07-19T00:08:51.170Z,1015.98
2016-07-19T00:09:51.196Z,1015.98
2016-07-19T00:10:51.224Z,1016
2016-07-19T00:11:51.252Z,1015.99
2016-07-19T00:12:51.279Z,1016.03
2016-07-19T00:13:51.305Z,1016.03
2016-07-19T00:14:51.330Z,1016.01
2016-07-19T00:15:51.357Z,1016.01
2016-07-19T00:16:51.385Z,1016.01
2016-07-19T00:17:51.409Z,1016.03
2016-07-19T00:18:51.437Z,1015.97
2016-07-19T00:19:51.463Z,1015.99
2016-07-19T00:20:51.492Z,1015.98
2016-07-19T00:21:51.516Z,1015.99
2016-07-19T00:23:51.571Z,1015.96
2016-07-19T00:24:51.596Z,1015.95
2016-07-19T00:25:51.624Z,1015.95
2016-07-19T00:26:51.649Z,1015.94
2016-07-19T00:27:51.675Z,1015.92
2016-07-19T00:28:51.704Z,1015.91
2016-07-19T00:29:51.731Z,1015.91
2016-07-19T00:30:51.755Z,1015.9
2016-07-19T00:31:51.782Z,1015.86
2016-07-19T00:32:51.809Z,1015.88
2016-07-19T00:33:51.837Z,1015.89
2016-07-19T00:34:51.863Z,1015.89
2016-07-19T00:35:51.892Z,1015.91
2016-07-19T00:36:51.919Z,1015.89
2016-07-19T00:37:51.946Z,1015.89
2016-07-19T00:39:51.999Z,1015.91
2016-07-19T00:40:52.026Z,1015.96
2016-07-19T00:41:52.054Z,1015.93
2016-07-19T00:42:52.079Z,1015.91
2016-07-19T00:43:52.107Z,1015.9
2016-07-19T00:44:52.133Z,1015.89
2016-07-19T00:45:52.158Z,1015.85
2016-07-19T00:46:52.184Z,1015.87
2016-07-19T00:47:52.213Z,1015.84
2016-07-19T00:48:52.240Z,1015.85
2016-07-19T00:49:52.264Z,1015.85
2016-07-19T00:50:52.292Z,1015.88
2016-07-19T00:51:52.317Z,1015.87
2016-07-19T00:52:52.344Z,1015.9
2016-07-19T00:53:52.371Z,1015.84
2016-07-19T00:55:52.426Z,1015.86
2016-07-19T00:56:52.453Z,1015.83
2016-07-19T00:57:52.479Z,1015.83
2016-07-19T00:58:52.506Z,1015.82
2016-07-19T00:59:52.531Z,1015.82
2016-07-19T01:00:52.557Z,1015.86
2016-07-19T01:01:52.583Z,1015.85
2016-07-19T01:02:52.609Z,1015.82
2016-07-19T01:03:52.637Z,1015.82
2016-07-19T01:04:52.662Z,1015.8
2016-07-19T01:05:52.690Z,1015.79
2016-07-19T01:06:52.718Z,1015.79
2016-07-19T01:07:52.745Z,1015.73
2016-07-19T01:08:52.771Z,1015.73
2016-07-19T01:10:52.825Z,1015.7
2016-07-19T01:11:52.851Z,1015.69
2016-07-19T01:12:52.878Z,1015.67
2016-07-19T01:13:52.903Z,1015.7
2016-07-19T01:14:52.929Z,1015.65
2016-07-19T01:15:52.958Z,1015.69
2016-07-19T01:16:52.985Z,1015.67
2016-07-19T01:17:53.011Z,1015.68
2016-07-19T01:18:53.037Z,1015.66
2016-07-19T01:19:53.063Z,1015.68
2016-07-19T01:20:53.091Z,1015.65
2016-07-19T01:21:53.114Z,1015.65
2016-07-19T01:22:53.143Z,1015.63
2016-07-19T01:23:53.167Z,1015.64
2016-07-19T01:24:53.196Z,1015.64
2016-07-19T01:25:53.221Z,1015.66
2016-07-19T01:26:53.249Z,1015.66
2016-07-19T01:27:53.274Z,1015.71
2016-07-19T01:28:53.303Z,1015.68
2016-07-19T01:29:53.329Z,1015.7
2016-07-19T01:30:53.356Z,1015.76
2016-07-19T01:31:53.383Z,1015.74
2016-07-19T01:32:53.407Z,1015.74
2016-07-19T01:33:53.436Z,1015.77
2016-07-19T01:34:53.460Z,1015.73
2016-07-19T01:35:53.487Z,1015.76
2016-07-19T01:36:53.514Z,1015.77
2016-07-19T01:37:53.540Z,1015.76
2016-07-19T01:38:53.569Z,1015.78
2016-07-19T01:39:53.594Z,1015.76
2016-07-19T01:40:53.619Z,1015.82
2016-07-19T01:42:53.673Z,1015.83
2016-07-19T01:43:53.702Z,1015.84
2016-07-19T01:44:53.726Z,1015.82
2016-07-19T01:45:53.754Z,1015.83
2016-07-19T01:46:53.780Z,1015.81
2016-07-19T01:47:53.806Z,1015.83
2016-07-19T01:48:53.832Z,1015.79
2016-07-19T01:49:53.860Z,1015.82
2016-07-19T01:50:53.886Z,1015.78
2016-07-19T01:51:53.913Z,1015.75
2016-07-19T01:52:53.938Z,1015.75
2016-07-19T01:53:53.965Z,1015.79
2016-07-19T01:54:53.994Z,1015.7
2016-07-19T01:55:54.018Z,1015.67
2016-07-19T01:56:54.046Z,1015.69
2016-07-19T01:58:54.098Z,1015.78
2016-07-19T01:59:54.127Z,1015.76
2016-07-19T02:00:54.151Z,1015.73
2016-07-19T02:01:54.178Z,1015.73
2016-07-19T02:02:54.204Z,1015.7
2016-07-19T02:03:54.232Z,1015.72
2016-07-19T02:04:54.259Z,1015.72
2016-07-19T02:05:54.284Z,1015.73
2016-07-19T02:06:54.312Z,1015.73
2016-07-19T02:07:54.336Z,1015.75
2016-07-19T02:08:54.366Z,1015.83
2016-07-19T02:09:54.393Z,1015.79
2016-07-19T02:10:54.418Z,1015.8
2016-07-19T02:11:54.445Z,1015.79
2016-07-19T02:12:54.471Z,1015.82
2016-07-19T02:14:54.522Z,1015.82
2016-07-19T02:15:54.549Z,1015.77
2016-07-19T02:16:54.576Z,1015.83
2016-07-19T02:17:54.604Z,1015.78
2016-07-19T02:18:54.628Z,1015.8
2016-07-19T02:19:54.655Z,1015.8
2016-07-19T02:20:54.684Z,1015.87
2016-07-19T02:21:54.708Z,1015.9
2016-07-19T02:22:54.737Z,1015.91
2016-07-19T02:23:54.760Z,1015.94
2016-07-19T02:24:54.800Z,1015.92
2016-07-19T02:25:54.815Z,1015.91
2016-07-19T02:26:54.848Z,1015.96
2016-07-19T02:27:54.868Z,1015.93
2016-07-19T02:28:54.895Z,1015.93
2016-07-19T02:30:54.949Z,1015.95
2016-07-19T02:31:54.975Z,1015.96
2016-07-19T02:32:55.001Z,1015.92
2016-07-19T02:33:55.026Z,1015.94
2016-07-19T02:34:55.053Z,1015.91
2016-07-19T02:35:55.081Z,1015.95
2016-07-19T02:36:55.107Z,1015.96
2016-07-19T02:37:55.133Z,1015.91
2016-07-19T02:38:55.160Z,1015.93
2016-07-19T02:39:55.184Z,1015.91
2016-07-19T02:40:55.211Z,1015.89
2016-07-19T02:41:55.238Z,1015.92
2016-07-19T02:42:55.267Z,1015.91
2016-07-19T02:43:55.291Z,1015.91
2016-07-19T02:45:55.348Z,1015.95
2016-07-19T02:46:55.371Z,1015.95
2016-07-19T02:47:55.398Z,1015.93
2016-07-19T02:48:55.425Z,1015.98
2016-07-19T02:49:55.451Z,1016.01
2016-07-19T02:50:55.477Z,1015.99
2016-07-19T02:51:55.504Z,1016
2016-07-19T02:52:55.532Z,1015.97
2016-07-19T02:53:55.557Z,1015.95
2016-07-19T02:54:55.586Z,1015.92
2016-07-19T02:55:55.615Z,1015.89
2016-07-19T02:56:55.639Z,1015.89
2016-07-19T02:57:55.663Z,1015.9
2016-07-19T02:58:55.689Z,1015.83
2016-07-19T02:59:55.717Z,1015.85
2016-07-19T03:00:55.745Z,1015.83
2016-07-19T03:01:55.769Z,1015.79
2016-07-19T03:02:55.795Z,1015.84
2016-07-19T03:03:55.822Z,1015.83
2016-07-19T03:04:55.849Z,1015.8
2016-07-19T03:05:55.875Z,1015.85
2016-07-19T03:06:55.901Z,1015.8
2016-07-19T03:07:55.928Z,1015.8
2016-07-19T03:08:55.956Z,1015.78
2016-07-19T03:09:55.983Z,1015.82
2016-07-19T03:10:56.007Z,1015.8
2016-07-19T03:11:56.034Z,1015.82
2016-07-19T03:12:56.062Z,1015.79
2016-07-19T03:13:56.088Z,1015.83
2016-07-19T03:14:56.115Z,1015.82
2016-07-19T03:15:56.139Z,1015.87
2016-07-19T03:17:56.192Z,1015.86
2016-07-19T03:18:56.219Z,1015.83
2016-07-19T03:19:56.250Z,1015.89
2016-07-19T03:20:56.273Z,1015.89
2016-07-19T03:21:56.300Z,1015.88
2016-07-19T03:22:56.326Z,1015.85
2016-07-19T03:23:56.351Z,1015.86
2016-07-19T03:24:56.378Z,1015.91
2016-07-19T03:25:56.404Z,1015.82
2016-07-19T03:26:56.430Z,1015.83
2016-07-19T03:27:56.459Z,1015.79
2016-07-19T03:28:56.483Z,1015.79
2016-07-19T03:29:56.511Z,1015.76
2016-07-19T03:30:56.539Z,1015.76
2016-07-19T03:31:56.563Z,1015.81
2016-07-19T03:33:56.619Z,1015.81
2016-07-19T03:34:56.642Z,1015.83
2016-07-19T03:35:56.670Z,1015.82
2016-07-19T03:36:56.695Z,1015.81
2016-07-19T03:37:56.721Z,1015.81
2016-07-19T03:38:56.748Z,1015.8
2016-07-19T03:39:56.774Z,1015.81
2016-07-19T03:40:56.801Z,1015.78
2016-07-19T03:41:56.829Z,1015.77
2016-07-19T03:42:56.855Z,1015.79
2016-07-19T03:43:56.884Z,1015.79
2016-07-19T03:44:56.909Z,1015.79
2016-07-19T03:45:56.934Z,1015.8
2016-07-19T03:46:56.964Z,1015.81
2016-07-19T03:47:56.990Z,1015.76
2016-07-19T03:49:57.040Z,1015.82
2016-07-19T03:50:57.069Z,1015.78
2016-07-19T03:51:57.093Z,1015.78
2016-07-19T03:52:57.122Z,1015.79
2016-07-19T03:53:57.148Z,1015.73
2016-07-19T03:54:57.175Z,1015.75
2016-07-19T03:55:57.202Z,1015.77
2016-07-19T03:56:57.227Z,1015.74
2016-07-19T03:57:57.255Z,1015.76
2016-07-19T03:58:57.281Z,1015.78
2016-07-19T03:59:57.307Z,1015.8
2016-07-19T04:00:57.334Z,1015.82
2016-07-19T04:01:57.361Z,1015.77
2016-07-19T04:02:57.388Z,1015.78
2016-07-19T04:03:57.413Z,1015.81
2016-07-19T04:05:57.466Z,1015.79
2016-07-19T04:06:57.494Z,1015.79
2016-07-19T04:07:57.517Z,1015.81
2016-07-19T04:08:57.544Z,1015.84
2016-07-19T04:09:57.572Z,1015.85
2016-07-19T04:10:57.597Z,1015.84
2016-07-19T04:11:57.623Z,1015.85
2016-07-19T04:12:57.703Z,1015.88
2016-07-19T04:13:57.677Z,1015.87
2016-07-19T04:14:57.704Z,1015.82
2016-07-19T04:15:57.732Z,1015.84
2016-07-19T04:16:57.756Z,1015.85
2016-07-19T04:17:57.783Z,1015.87
2016-07-19T04:18:57.812Z,1015.88
2016-07-19T04:20:57.865Z,1015.92
2016-07-19T04:21:57.891Z,1015.84
2016-07-19T04:22:57.918Z,1015.88
2016-07-19T04:23:57.945Z,1015.86
2016-07-19T04:24:57.971Z,1015.86
2016-07-19T04:25:57.996Z,1015.93
2016-07-19T04:26:58.022Z,1015.94
2016-07-19T04:27:58.051Z,1015.93
2016-07-19T04:28:58.075Z,1015.92
2016-07-19T04:29:58.102Z,1015.96
2016-07-19T04:30:58.131Z,1015.95
2016-07-19T04:31:58.157Z,1015.94
2016-07-19T04:32:58.181Z,1015.95
2016-07-19T04:33:58.210Z,1015.94
2016-07-19T04:34:58.235Z,1015.95
2016-07-19T04:35:58.264Z,1015.95
2016-07-19T04:36:58.287Z,1015.96
2016-07-19T04:37:58.315Z,1015.96
2016-07-19T04:38:58.340Z,1015.92
2016-07-19T04:39:58.367Z,1015.96
2016-07-19T04:40:58.395Z,1015.91
2016-07-19T04:41:58.421Z,1015.94
2016-07-19T04:42:58.449Z,1015.97
2016-07-19T04:43:58.473Z,1015.99
2016-07-19T04:44:58.501Z,1016.01
2016-07-19T04:45:58.528Z,1015.99
2016-07-19T04:46:58.553Z,1016.01
2016-07-19T04:47:58.579Z,1016.05
2016-07-19T04:48:58.606Z,1016.04
2016-07-19T04:49:58.633Z,1016.02
2016-07-19T04:50:58.659Z,1016.01
2016-07-19T04:52:58.713Z,1016
2016-07-19T04:53:58.739Z,1016.01
2016-07-19T04:54:58.767Z,1016.01
2016-07-19T04:55:58.792Z,1016.05
2016-07-19T04:56:58.822Z,1016.07
2016-07-19T04:57:58.845Z,1016.06
2016-07-19T04:58:58.873Z,1016.06
2016-07-19T04:59:58.901Z,1016.06
2016-07-19T05:00:58.925Z,1016.1
2016-07-19T05:01:58.951Z,1016.07
2016-07-19T05:02:58.981Z,1016.03
2016-07-19T05:03:59.007Z,1016.09
2016-07-19T05:04:59.034Z,1016.09
2016-07-19T05:05:59.060Z,1016.1
2016-07-19T05:06:59.086Z,1016.06
2016-07-19T05:08:59.141Z,1016.15
2016-07-19T05:09:59.164Z,1016.15
2016-07-19T05:10:59.192Z,1016.16
2016-07-19T05:11:59.219Z,1016.13
2016-07-19T05:12:59.246Z,1016.14
2016-07-19T05:13:59.273Z,1016.13
2016-07-19T05:14:59.298Z,1016.14
2016-07-19T05:15:59.327Z,1016.19
2016-07-19T05:16:59.352Z,1016.15
2016-07-19T05:17:59.380Z,1016.21
2016-07-19T05:18:59.409Z,1016.22
2016-07-19T05:19:59.431Z,1016.2
2016-07-19T05:20:59.458Z,1016.2
2016-07-19T05:21:59.486Z,1016.26
2016-07-19T05:22:59.511Z,1016.23
2016-07-19T05:24:59.566Z,1016.25
2016-07-19T05:25:59.591Z,1016.28
2016-07-19T05:26:59.620Z,1016.34
2016-07-19T05:27:59.644Z,1016.36
2016-07-19T05:28:59.671Z,1016.34
2016-07-19T05:29:59.699Z,1016.33
2016-07-19T05:30:59.725Z,1016.32
2016-07-19T05:31:59.754Z,1016.39
2016-07-19T05:32:59.780Z,1016.43
2016-07-19T05:33:59.807Z,1016.41
2016-07-19T05:34:59.833Z,1016.43
2016-07-19T05:35:59.858Z,1016.45
2016-07-19T05:36:59.885Z,1016.42
2016-07-19T05:37:59.912Z,1016.44
2016-07-19T05:38:59.939Z,1016.45
2016-07-19T05:40:59.992Z,1016.49
2016-07-19T05:42:00.021Z,1016.46
2016-07-19T05:43:00.046Z,1016.49
2016-07-19T05:44:00.075Z,1016.53
2016-07-19T05:45:00.101Z,1016.58
2016-07-19T05:46:00.126Z,1016.61
2016-07-19T05:47:00.154Z,1016.61
2016-07-19T05:48:00.181Z,1016.61
2016-07-19T05:49:00.209Z,1016.62
2016-07-19T05:50:00.232Z,1016.61
2016-07-19T05:51:00.262Z,1016.66
2016-07-19T05:52:00.286Z,1016.66
2016-07-19T05:53:00.316Z,1016.66
2016-07-19T05:54:00.340Z,1016.68
2016-07-19T05:56:00.395Z,1016.67
2016-07-19T05:57:00.421Z,1016.69
2016-07-19T05:58:00.450Z,1016.69
2016-07-19T05:59:00.475Z,1016.64
2016-07-19T06:00:00.502Z,1016.65
2016-07-19T06:01:00.530Z,1016.64
2016-07-19T06:02:00.556Z,1016.59
2016-07-19T06:03:00.584Z,1016.62
2016-07-19T06:04:00.609Z,1016.61
2016-07-19T06:05:00.637Z,1016.66
2016-07-19T06:06:00.663Z,1016.65
2016-07-19T06:07:00.693Z,1016.65
2016-07-19T06:08:00.716Z,1016.64
2016-07-19T06:09:00.744Z,1016.65
2016-07-19T06:10:00.773Z,1016.63
2016-07-19T06:11:00.797Z,1016.6
2016-07-19T06:12:00.828Z,1016.63
2016-07-19T06:13:00.855Z,1016.66
2016-07-19T06:14:00.883Z,1016.64
2016-07-19T06:15:00.912Z,1016.61
2016-07-19T06:16:00.936Z,1016.66
2016-07-19T06:17:00.961Z,1016.68
2016-07-19T06:18:00.988Z,1016.67
2016-07-19T06:19:01.016Z,1016.73
2016-07-19T06:20:01.041Z,1016.73
2016-07-19T06:21:01.068Z,1016.7
2016-07-19T06:22:01.096Z,1016.72
2016-07-19T06:23:01.121Z,1016.72
2016-07-19T06:24:01.151Z,1016.74
2016-07-19T06:25:01.176Z,1016.72
2016-07-19T06:26:01.201Z,1016.71
2016-07-19T06:28:01.258Z,1016.67
2016-07-19T06:29:01.286Z,1016.69
2016-07-19T06:30:01.311Z,1016.71
2016-07-19T06:31:01.337Z,1016.75
2016-07-19T06:32:01.364Z,1016.75
2016-07-19T06:33:01.394Z,1016.72
2016-07-19T06:34:01.419Z,1016.72
2016-07-19T06:35:01.445Z,1016.78
2016-07-19T06:36:01.471Z,1016.76
2016-07-19T06:37:01.497Z,1016.76
2016-07-19T06:38:01.526Z,1016.74
2016-07-19T06:39:01.552Z,1016.76
2016-07-19T06:40:01.581Z,1016.73
2016-07-19T06:41:01.605Z,1016.78
2016-07-19T06:42:01.634Z,1016.77
2016-07-19T06:44:01.686Z,1016.8
2016-07-19T06:45:01.714Z,1016.78
2016-07-19T06:46:01.742Z,1016.74
2016-07-19T06:47:01.768Z,1016.77
2016-07-19T06:48:01.795Z,1016.79
2016-07-19T06:49:01.823Z,1016.8
2016-07-19T06:50:01.851Z,1016.74
2016-07-19T06:51:01.876Z,1016.8
2016-07-19T06:52:01.904Z,1016.84
2016-07-19T06:53:01.929Z,1016.79
2016-07-19T06:54:01.959Z,1016.81
2016-07-19T06:55:01.987Z,1016.86
2016-07-19T06:56:02.011Z,1016.87
2016-07-19T06:57:02.038Z,1016.88
2016-07-19T06:58:02.068Z,1016.91
2016-07-19T07:00:02.120Z,1016.91
2016-07-19T07:01:02.146Z,1016.9
2016-07-19T07:02:02.174Z,1016.91
2016-07-19T07:03:02.202Z,1016.94
2016-07-19T07:04:02.228Z,1016.89
2016-07-19T07:05:02.255Z,1016.87
2016-07-19T07:06:02.286Z,1016.88
2016-07-19T07:07:02.311Z,1016.91
2016-07-19T07:08:02.336Z,1016.86
2016-07-19T07:09:02.366Z,1016.83
2016-07-19T07:10:02.392Z,1016.87
2016-07-19T07:11:02.423Z,1016.9
2016-07-19T07:12:02.445Z,1016.96
2016-07-19T07:13:02.476Z,1016.9
2016-07-19T07:14:02.499Z,1016.92
2016-07-19T07:16:02.554Z,1016.92
2016-07-19T07:17:02.584Z,1016.9
2016-07-19T07:18:02.610Z,1016.91
2016-07-19T07:19:02.639Z,1016.92
2016-07-19T07:20:02.665Z,1016.93
2016-07-19T07:21:02.691Z,1016.92
2016-07-19T07:22:02.718Z,1016.95
2016-07-19T07:23:02.751Z,1016.84
2016-07-19T07:24:02.774Z,1016.94
2016-07-19T07:25:02.801Z,1016.91
2016-07-19T07:26:02.829Z,1016.9
2016-07-19T07:27:02.859Z,1016.94
2016-07-19T07:28:02.885Z,1016.95
2016-07-19T07:29:02.912Z,1016.96
2016-07-19T07:31:02.969Z,1017.01
2016-07-19T07:32:02.998Z,1017.04
2016-07-19T07:33:03.026Z,1017.05
2016-07-19T07:34:03.052Z,1017.07
2016-07-19T07:35:03.080Z,1017.06
2016-07-19T07:36:03.108Z,1017.01
2016-07-19T07:37:03.136Z,1017.01
2016-07-19T07:38:03.166Z,1017.05
2016-07-19T07:39:03.191Z,1017.07
2016-07-19T07:40:03.220Z,1017.09
2016-07-19T07:41:03.248Z,1017.17
2016-07-19T07:42:03.279Z,1017.33
2016-07-19T07:43:03.307Z,1017.76
2016-07-19T07:44:03.336Z,1017.18
2016-07-19T07:45:03.365Z,1017.79
2016-07-19T07:46:03.395Z,1017.35
2016-07-19T07:47:03.423Z,1017.54
2016-07-19T07:48:03.453Z,1017.38
2016-07-19T07:49:03.482Z,1017.43
2016-07-19T07:50:03.510Z,1017.7
2016-07-19T07:51:03.542Z,1017.36
2016-07-19T07:52:03.573Z,1017.8
2016-07-19T07:53:03.601Z,1017.96
2016-07-19T07:54:03.633Z,1017.93
2016-07-19T07:55:03.664Z,1017.99
2016-07-19T07:56:03.695Z,1017.68
2016-07-19T07:57:03.725Z,1017.91
2016-07-19T07:58:03.758Z,1017.94
2016-07-19T07:59:03.790Z,1017.56
2016-07-19T08:00:03.822Z,1017.25
2016-07-19T08:01:03.851Z,1017.89
2016-07-19T08:03:03.918Z,1017.29
2016-07-19T08:04:03.952Z,1017.2
2016-07-19T08:05:03.983Z,1017.29
2016-07-19T08:06:04.015Z,1017.66
2016-07-19T08:07:04.049Z,1017.24
2016-07-19T08:08:04.082Z,1017.18
2016-07-19T08:09:04.115Z,1017.18
2016-07-19T08:10:04.149Z,1017.42
2016-07-19T08:11:04.180Z,1017.62
2016-07-19T08:12:04.213Z,1017.6
2016-07-19T08:13:04.245Z,1017.27
2016-07-19T08:14:04.279Z,1017.26
2016-07-19T08:15:04.310Z,1017.22
2016-07-19T08:16:04.342Z,1017.2
2016-07-19T08:17:04.378Z,1017.11
2016-07-19T08:19:04.441Z,1017.22
2016-07-19T08:20:04.475Z,1017.53
2016-07-19T08:21:04.504Z,1017.54
2016-07-19T08:22:04.537Z,1017.42
2016-07-19T08:23:04.571Z,1017.52
2016-07-19T08:24:04.604Z,1017.41
2016-07-19T08:25:04.634Z,1017.55
2016-07-19T08:26:04.668Z,1017.21
2016-07-19T08:27:04.701Z,1017.32
2016-07-19T08:28:04.734Z,1017.41
2016-07-19T08:29:04.765Z,1017.31
2016-07-19T08:30:04.800Z,1017.23
2016-07-19T08:31:04.832Z,1017.3
2016-07-19T08:32:04.865Z,1017.23
2016-07-19T08:33:04.896Z,1017.24
2016-07-19T08:35:04.963Z,1017.18
2016-07-19T08:36:04.991Z,1017.24
2016-07-19T08:37:05.029Z,1017.22
2016-07-19T08:38:05.060Z,1017.17
2016-07-19T08:39:05.091Z,1017.14
2016-07-19T08:40:05.124Z,1017.11
2016-07-19T08:41:05.166Z,1017.14
2016-07-19T08:42:05.187Z,1017.09
2016-07-19T08:43:05.220Z,1017.09
2016-07-19T08:44:05.252Z,1017.13
2016-07-19T08:45:05.284Z,1017.1
2016-07-19T08:46:05.315Z,1017.08
2016-07-19T08:47:05.356Z,1017.07
2016-07-19T08:48:05.379Z,1017.1
2016-07-19T08:49:05.409Z,1017.14
2016-07-19T08:51:05.473Z,1017.13
2016-07-19T08:52:05.505Z,1017.15
2016-07-19T08:53:05.536Z,1017.13
2016-07-19T08:54:05.570Z,1017.12
2016-07-19T08:55:05.600Z,1017.07
2016-07-19T08:56:05.633Z,1017.11
2016-07-19T08:57:05.664Z,1017.14
2016-07-19T08:58:05.695Z,1017.13
2016-07-19T08:59:05.725Z,1017.15
2016-07-19T09:00:05.758Z,1017.11
2016-07-19T09:01:05.788Z,1017.14
2016-07-19T09:02:05.820Z,1017.22
2016-07-19T09:03:05.851Z,1017.15
2016-07-19T09:04:05.883Z,1017.12
2016-07-19T09:06:05.947Z,1017.09
2016-07-19T09:07:05.977Z,1017.15
2016-07-19T09:08:06.005Z,1017.12
2016-07-19T09:09:06.036Z,1017.03
2016-07-19T09:10:06.069Z,1017.11
2016-07-19T09:11:06.098Z,1017.12
2016-07-19T09:12:06.130Z,1017.1
2016-07-19T09:13:06.161Z,1017.22
2016-07-19T09:14:06.191Z,1017.17
2016-07-19T09:15:06.224Z,1017.17
2016-07-19T09:16:06.252Z,1017.24
2016-07-19T09:17:06.284Z,1017.26
2016-07-19T09:18:06.316Z,1017.24
2016-07-19T09:19:06.346Z,1017.19
2016-07-19T09:20:06.378Z,1017.19
2016-07-19T09:21:06.409Z,1017.24
2016-07-19T09:22:06.439Z,1017.16
2016-07-19T09:23:06.471Z,1017.21
2016-07-19T09:24:06.502Z,1017.2
2016-07-19T09:26:06.561Z,1017.11
2016-07-19T09:27:06.593Z,1017.08
2016-07-19T09:28:06.626Z,1017.2
2016-07-19T09:29:06.654Z,1017.12
2016-07-19T09:30:06.687Z,1017.15
2016-07-19T09:31:06.719Z,1017.17
2016-07-19T09:32:06.750Z,1017.21
2016-07-19T09:33:06.777Z,1017.2
2016-07-19T09:34:06.811Z,1017.24
2016-07-19T09:35:06.842Z,1017.21
2016-07-19T09:36:06.871Z,1017.21
2016-07-19T09:38:06.935Z,1017.2
2016-07-19T09:39:06.966Z,1017.2
2016-07-19T09:40:06.998Z,1017.23
2016-07-19T09:41:07.028Z,1017.29
2016-07-19T09:42:07.058Z,1017.28
2016-07-19T09:43:07.092Z,1017.29
2016-07-19T09:44:07.119Z,1017.29
2016-07-19T09:45:07.153Z,1017.3
2016-07-19T09:46:07.182Z,1017.3
2016-07-19T09:47:07.213Z,1017.3
2016-07-19T09:48:07.244Z,1017.39
2016-07-19T09:49:07.277Z,1017.3
2016-07-19T09:50:07.309Z,1017.34
2016-07-19T09:51:07.339Z,1017.33
2016-07-19T09:52:07.377Z,1017.33
2016-07-19T09:54:07.433Z,1017.24
2016-07-19T09:55:07.459Z,1017.27
2016-07-19T09:56:07.491Z,1017.23
2016-07-19T09:57:07.522Z,1017.27
2016-07-19T09:58:07.550Z,1017.24
2016-07-19T09:59:07.585Z,1017.26
2016-07-19T10:00:07.614Z,1017.28
2016-07-19T10:01:07.646Z,1017.25
2016-07-19T10:02:07.675Z,1017.27
2016-07-19T10:03:07.705Z,1017.23
2016-07-19T10:04:07.738Z,1017.21
2016-07-19T10:05:07.767Z,1017.25
2016-07-19T10:06:07.797Z,1017.23
2016-07-19T10:07:07.830Z,1017.25
2016-07-19T10:08:07.859Z,1017.27
2016-07-19T10:10:07.923Z,1017.28
2016-07-19T10:11:07.952Z,1017.25
2016-07-19T10:12:07.982Z,1017.25
2016-07-19T10:13:08.011Z,1017.26
2016-07-19T10:14:08.044Z,1017.34
2016-07-19T10:15:08.074Z,1017.28
2016-07-19T10:16:08.104Z,1017.26
2016-07-19T10:17:08.133Z,1017.28
2016-07-19T10:18:08.164Z,1017.29
2016-07-19T10:19:08.196Z,1017.22
2016-07-19T10:20:08.225Z,1017.21
2016-07-19T10:21:08.256Z,1017.21
2016-07-19T10:22:08.289Z,1017.23
2016-07-19T10:23:08.319Z,1017.27
2016-07-19T10:24:08.347Z,1017.23
2016-07-19T10:26:08.407Z,1017.3
2016-07-19T10:27:08.440Z,1017.26
2016-07-19T10:28:08.470Z,1017.28
2016-07-19T10:29:08.499Z,1017.28
2016-07-19T10:30:08.528Z,1017.28
2016-07-19T10:31:08.558Z,1017.27
2016-07-19T10:32:08.593Z,1017.3
2016-07-19T10:33:08.619Z,1017.34
2016-07-19T10:34:08.648Z,1017.33
2016-07-19T10:35:08.677Z,1017.3
2016-07-19T10:36:08.708Z,1017.34
2016-07-19T10:37:08.738Z,1017.31
2016-07-19T10:38:08.770Z,1017.33
2016-07-19T10:39:08.800Z,1017.37
2016-07-19T10:41:08.858Z,1017.37
2016-07-19T10:42:08.890Z,1017.36
2016-07-19T10:43:08.918Z,1017.42
2016-07-19T10:44:08.948Z,1017.42
2016-07-19T10:45:08.991Z,1017.4
2016-07-19T10:46:09.008Z,1017.41
2016-07-19T10:47:09.036Z,1017.43
2016-07-19T10:48:09.069Z,1017.47
2016-07-19T10:49:09.097Z,1017.46
2016-07-19T10:50:09.125Z,1017.41
2016-07-19T10:51:09.158Z,1017.45
2016-07-19T10:52:09.185Z,1017.45
2016-07-19T10:53:09.213Z,1017.41
2016-07-19T10:54:09.246Z,1017.42
2016-07-19T10:55:09.274Z,1017.39
2016-07-19T10:56:09.303Z,1017.39
2016-07-19T10:57:09.334Z,1017.41
2016-07-19T10:58:09.362Z,1017.39
2016-07-19T10:59:09.393Z,1017.41
2016-07-19T11:00:09.422Z,1017.4
2016-07-19T11:01:09.451Z,1017.4
2016-07-19T11:02:09.480Z,1017.42
2016-07-19T11:03:09.511Z,1017.39
2016-07-19T11:04:09.541Z,1017.41
2016-07-19T11:05:09.567Z,1017.42
2016-07-19T11:06:09.597Z,1017.41
2016-07-19T11:07:09.626Z,1017.47
2016-07-19T11:08:09.656Z,1017.5
2016-07-19T11:09:09.687Z,1017.46
2016-07-19T11:10:09.717Z,1017.54
2016-07-19T11:11:09.746Z,1017.46
2016-07-19T11:13:09.804Z,1017.45
2016-07-19T11:14:09.835Z,1017.41
2016-07-19T11:15:09.861Z,1017.45
2016-07-19T11:16:09.895Z,1017.48
2016-07-19T11:17:09.921Z,1017.46
2016-07-19T11:18:09.953Z,1017.45
2016-07-19T11:19:09.982Z,1017.46
2016-07-19T11:20:10.010Z,1017.46
2016-07-19T11:21:10.040Z,1017.46
2016-07-19T11:22:10.067Z,1017.49
2016-07-19T11:23:10.096Z,1017.47
2016-07-19T11:24:10.126Z,1017.47
2016-07-19T11:25:10.156Z,1017.45
2016-07-19T11:26:10.186Z,1017.45
2016-07-19T11:27:10.216Z,1017.45
2016-07-19T11:29:10.274Z,1017.42
2016-07-19T11:30:10.303Z,1017.42
2016-07-19T11:31:10.332Z,1017.4
2016-07-19T11:32:10.360Z,1017.43
2016-07-19T11:33:10.390Z,1017.43
2016-07-19T11:34:10.420Z,1017.42
2016-07-19T11:35:10.450Z,1017.39
2016-07-19T11:36:10.476Z,1017.43
2016-07-19T11:37:10.504Z,1017.44
2016-07-19T11:38:10.536Z,1017.41
2016-07-19T11:39:10.563Z,1017.43
2016-07-19T11:40:10.593Z,1017.47
2016-07-19T11:41:10.624Z,1017.45
2016-07-19T11:42:10.651Z,1017.48
2016-07-19T11:43:10.681Z,1017.48
2016-07-19T11:45:10.741Z,1017.48
2016-07-19T11:46:10.768Z,1017.49
2016-07-19T11:47:10.799Z,1017.5
2016-07-19T11:48:10.827Z,1017.51
2016-07-19T11:49:10.856Z,1017.53
2016-07-19T11:50:10.885Z,1017.59
2016-07-19T11:51:10.915Z,1017.55
2016-07-19T11:52:10.942Z,1017.58
2016-07-19T11:53:10.972Z,1017.57
2016-07-19T11:54:11.001Z,1017.49
2016-07-19T11:55:11.030Z,1017.52
2016-07-19T11:56:11.063Z,1017.54
2016-07-19T11:57:11.088Z,1017.54
2016-07-19T11:58:11.118Z,1017.58
2016-07-19T11:59:11.147Z,1017.5
2016-07-19T12:01:11.206Z,1017.46
2016-07-19T12:02:11.238Z,1017.49
2016-07-19T12:03:11.264Z,1017.49
2016-07-19T12:04:11.293Z,1017.45
2016-07-19T12:05:11.323Z,1017.46
2016-07-19T12:06:11.353Z,1017.47
2016-07-19T12:07:11.384Z,1017.49
2016-07-19T12:08:11.411Z,1017.49
2016-07-19T12:09:11.440Z,1017.45
2016-07-19T12:10:11.469Z,1017.48
2016-07-19T12:11:11.498Z,1017.41
2016-07-19T12:12:11.528Z,1017.53
2016-07-19T12:13:11.560Z,1017.43
2016-07-19T12:14:11.589Z,1017.41
2016-07-19T12:16:11.649Z,1017.39
2016-07-19T12:17:11.677Z,1017.38
2016-07-19T12:18:11.708Z,1017.42
2016-07-19T12:19:11.738Z,1017.41
2016-07-19T12:20:11.767Z,1017.39
2016-07-19T12:21:11.794Z,1017.33
2016-07-19T12:22:11.827Z,1017.37
2016-07-19T12:23:11.857Z,1017.4
2016-07-19T12:24:11.884Z,1017.36
2016-07-19T12:25:11.916Z,1017.35
2016-07-19T12:26:11.945Z,1017.3
2016-07-19T12:27:11.976Z,1017.3
2016-07-19T12:28:12.006Z,1017.32
2016-07-19T12:29:12.034Z,1017.31
2016-07-19T12:30:12.064Z,1017.31
2016-07-19T12:31:12.097Z,1017.29
2016-07-19T12:32:12.128Z,1017.26
2016-07-19T12:33:12.157Z,1017.31
2016-07-19T12:34:12.186Z,1017.33
2016-07-19T12:35:12.216Z,1017.32
2016-07-19T12:36:12.247Z,1017.32
2016-07-19T12:37:12.276Z,1017.35
2016-07-19T12:38:12.308Z,1017.33
2016-07-19T12:39:12.334Z,1017.36
2016-07-19T12:40:12.366Z,1017.38
2016-07-19T12:41:12.396Z,1017.36
2016-07-19T12:42:12.425Z,1017.43
2016-07-19T12:43:12.457Z,1017.31
2016-07-19T12:44:12.486Z,1017.3
2016-07-19T12:45:12.514Z,1017.25
2016-07-19T12:46:12.547Z,1017.28
2016-07-19T12:48:12.608Z,1017.27
2016-07-19T12:49:12.637Z,1017.26
2016-07-19T12:50:12.670Z,1017.23
2016-07-19T12:51:12.698Z,1017.24